sensor_id;sensor_type;location;lat;lon;timestamp;P1;durP1;ratioP1;P2;durP2;ratioP2
10705;SDS011;5404;42.656;23.336;2023-06-04T00:01:49;16.40;;;5.78;;
10705;SDS011;5404;42.656;23.336;2023-06-04T00:04:15;8.15;;;5.35;;
10705;SDS011;5404;42.656;23.336;2023-06-04T00:06:40;10.70;;;5.75;;
10705;SDS011;5404;42.656;23.336;2023-06-04T00:09:05;9.35;;;5.65;;
10705;SDS011;5404;42.656;23.336;2023-06-04T00:11:31;14.88;;;5.80;;
10705;SDS011;5404;42.656;23.336;2023-06-04T00:13:58;11.63;;;5.13;;
10705;SDS011;5404;42.656;23.336;2023-06-04T00:16:25;8.35;;;5.75;;
10705;SDS011;5404;42.656;23.336;2023-06-04T00:18:50;13.32;;;6.30;;
10705;SDS011;5404;42.656;23.336;2023-06-04T00:21:15;8.48;;;5.03;;
10705;SDS011;5404;42.656;23.336;2023-06-04T00:23:41;7.13;;;4.78;;
10705;SDS011;5404;42.656;23.336;2023-06-04T00:26:07;6.13;;;4.60;;
10705;SDS011;5404;42.656;23.336;2023-06-04T00:28:32;10.18;;;4.97;;
10705;SDS011;5404;42.656;23.336;2023-06-04T00:30:58;7.05;;;4.68;;
10705;SDS011;5404;42.656;23.336;2023-06-04T00:33:23;7.22;;;4.68;;
10705;SDS011;5404;42.656;23.336;2023-06-04T00:35:49;6.65;;;5.00;;
10705;SDS011;5404;42.656;23.336;2023-06-04T00:38:14;10.18;;;4.78;;
10705;SDS011;5404;42.656;23.336;2023-06-04T00:40:40;8.55;;;4.97;;
10705;SDS011;5404;42.656;23.336;2023-06-04T00:43:05;5.88;;;4.82;;
10705;SDS011;5404;42.656;23.336;2023-06-04T00:45:31;7.25;;;4.45;;
10705;SDS011;5404;42.656;23.336;2023-06-04T00:47:57;10.27;;;5.20;;
10705;SDS011;5404;42.656;23.336;2023-06-04T00:50:24;7.90;;;4.88;;
10705;SDS011;5404;42.656;23.336;2023-06-04T00:52:49;9.40;;;5.10;;
10705;SDS011;5404;42.656;23.336;2023-06-04T00:55:16;8.27;;;4.90;;
10705;SDS011;5404;42.656;23.336;2023-06-04T00:57:44;7.77;;;5.07;;
10705;SDS011;5404;42.656;23.336;2023-06-04T01:00:10;5.75;;;3.95;;
10705;SDS011;5404;42.656;23.336;2023-06-04T01:02:37;6.65;;;5.15;;
10705;SDS011;5404;42.656;23.336;2023-06-04T01:07:37;9.27;;;4.78;;
10705;SDS011;5404;42.656;23.336;2023-06-04T01:10:05;6.90;;;5.18;;
10705;SDS011;5404;42.656;23.336;2023-06-04T01:12:31;7.18;;;5.38;;
10705;SDS011;5404;42.656;23.336;2023-06-04T01:14:57;9.50;;;5.20;;
10705;SDS011;5404;42.656;23.336;2023-06-04T01:17:32;11.75;;;5.88;;
10705;SDS011;5404;42.656;23.336;2023-06-04T01:28:07;15.10;;;8.60;;
10705;SDS011;5404;42.656;23.336;2023-06-04T01:30:36;14.15;;;7.93;;
10705;SDS011;5404;42.656;23.336;2023-06-04T01:33:08;13.27;;;9.10;;
10705;SDS011;5404;42.656;23.336;2023-06-04T01:35:36;15.18;;;9.88;;
10705;SDS011;5404;42.656;23.336;2023-06-04T01:38:02;16.17;;;10.18;;
10705;SDS011;5404;42.656;23.336;2023-06-04T01:40:27;15.68;;;10.90;;
10705;SDS011;5404;42.656;23.336;2023-06-04T01:42:53;20.02;;;11.05;;
10705;SDS011;5404;42.656;23.336;2023-06-04T01:45:20;15.52;;;10.68;;
10705;SDS011;5404;42.656;23.336;2023-06-04T01:47:49;11.82;;;8.98;;
10705;SDS011;5404;42.656;23.336;2023-06-04T01:50:14;13.90;;;7.97;;
10705;SDS011;5404;42.656;23.336;2023-06-04T01:52:40;9.98;;;7.03;;
10705;SDS011;5404;42.656;23.336;2023-06-04T01:55:06;8.02;;;5.95;;
10705;SDS011;5404;42.656;23.336;2023-06-04T01:57:34;8.63;;;5.75;;
10705;SDS011;5404;42.656;23.336;2023-06-04T02:00:03;9.45;;;5.72;;
10705;SDS011;5404;42.656;23.336;2023-06-04T02:02:33;5.97;;;4.40;;
10705;SDS011;5404;42.656;23.336;2023-06-04T02:04:58;6.32;;;4.80;;
10705;SDS011;5404;42.656;23.336;2023-06-04T02:07:24;8.55;;;4.30;;
10705;SDS011;5404;42.656;23.336;2023-06-04T02:09:51;8.80;;;3.55;;
10705;SDS011;5404;42.656;23.336;2023-06-04T02:12:16;5.78;;;3.60;;
10705;SDS011;5404;42.656;23.336;2023-06-04T02:14:42;4.45;;;3.38;;
10705;SDS011;5404;42.656;23.336;2023-06-04T02:17:10;5.50;;;3.80;;
10705;SDS011;5404;42.656;23.336;2023-06-04T02:19:40;8.48;;;4.00;;
10705;SDS011;5404;42.656;23.336;2023-06-04T02:22:13;4.25;;;3.55;;
10705;SDS011;5404;42.656;23.336;2023-06-04T02:24:39;7.20;;;4.53;;
10705;SDS011;5404;42.656;23.336;2023-06-04T02:27:07;7.43;;;5.57;;
10705;SDS011;5404;42.656;23.336;2023-06-04T02:29:34;7.45;;;4.90;;
10705;SDS011;5404;42.656;23.336;2023-06-04T02:31:59;11.25;;;5.63;;
10705;SDS011;5404;42.656;23.336;2023-06-04T02:34:25;11.23;;;5.57;;
10705;SDS011;5404;42.656;23.336;2023-06-04T02:36:50;7.45;;;5.45;;
10705;SDS011;5404;42.656;23.336;2023-06-04T02:39:16;6.80;;;4.70;;
10705;SDS011;5404;42.656;23.336;2023-06-04T02:41:42;9.65;;;4.15;;
10705;SDS011;5404;42.656;23.336;2023-06-04T02:44:08;5.60;;;3.72;;
10705;SDS011;5404;42.656;23.336;2023-06-04T02:46:33;4.78;;;4.10;;
10705;SDS011;5404;42.656;23.336;2023-06-04T02:48:59;5.95;;;4.80;;
10705;SDS011;5404;42.656;23.336;2023-06-04T02:51:24;6.43;;;4.53;;
10705;SDS011;5404;42.656;23.336;2023-06-04T02:53:50;8.80;;;4.68;;
10705;SDS011;5404;42.656;23.336;2023-06-04T02:56:15;8.80;;;4.63;;
10705;SDS011;5404;42.656;23.336;2023-06-04T02:58:53;10.20;;;4.25;;
10705;SDS011;5404;42.656;23.336;2023-06-04T03:01:20;6.88;;;4.30;;
10705;SDS011;5404;42.656;23.336;2023-06-04T03:06:15;6.82;;;4.57;;
10705;SDS011;5404;42.656;23.336;2023-06-04T03:08:42;5.82;;;4.70;;
10705;SDS011;5404;42.656;23.336;2023-06-04T03:11:08;8.95;;;4.35;;
10705;SDS011;5404;42.656;23.336;2023-06-04T03:13:33;6.20;;;4.43;;
10705;SDS011;5404;42.656;23.336;2023-06-04T03:15:59;7.00;;;4.43;;
10705;SDS011;5404;42.656;23.336;2023-06-04T03:18:26;6.45;;;4.75;;
10705;SDS011;5404;42.656;23.336;2023-06-04T03:20:54;6.28;;;4.43;;
10705;SDS011;5404;42.656;23.336;2023-06-04T03:23:20;9.93;;;4.97;;
10705;SDS011;5404;42.656;23.336;2023-06-04T03:25:46;7.20;;;4.75;;
10705;SDS011;5404;42.656;23.336;2023-06-04T03:28:12;7.63;;;4.47;;
10705;SDS011;5404;42.656;23.336;2023-06-04T03:30:37;5.35;;;4.18;;
10705;SDS011;5404;42.656;23.336;2023-06-04T03:33:03;6.07;;;3.92;;
10705;SDS011;5404;42.656;23.336;2023-06-04T03:35:28;6.10;;;4.10;;
10705;SDS011;5404;42.656;23.336;2023-06-04T03:37:54;6.20;;;4.03;;
10705;SDS011;5404;42.656;23.336;2023-06-04T03:40:19;6.85;;;4.38;;
10705;SDS011;5404;42.656;23.336;2023-06-04T03:42:45;5.93;;;4.18;;
10705;SDS011;5404;42.656;23.336;2023-06-04T03:45:10;5.13;;;4.18;;
10705;SDS011;5404;42.656;23.336;2023-06-04T03:47:37;8.85;;;4.53;;
10705;SDS011;5404;42.656;23.336;2023-06-04T03:50:04;4.72;;;3.88;;
10705;SDS011;5404;42.656;23.336;2023-06-04T03:52:30;11.95;;;4.18;;
10705;SDS011;5404;42.656;23.336;2023-06-04T03:54:56;8.23;;;4.07;;
10705;SDS011;5404;42.656;23.336;2023-06-04T03:57:22;8.25;;;4.65;;
10705;SDS011;5404;42.656;23.336;2023-06-04T03:59:47;9.30;;;4.38;;
10705;SDS011;5404;42.656;23.336;2023-06-04T04:02:12;7.78;;;3.97;;
10705;SDS011;5404;42.656;23.336;2023-06-04T04:04:38;7.28;;;4.88;;
10705;SDS011;5404;42.656;23.336;2023-06-04T04:07:03;19.13;;;4.80;;
10705;SDS011;5404;42.656;23.336;2023-06-04T04:09:29;9.02;;;3.85;;
10705;SDS011;5404;42.656;23.336;2023-06-04T04:11:54;7.03;;;3.88;;
10705;SDS011;5404;42.656;23.336;2023-06-04T04:14:20;6.78;;;4.90;;
10705;SDS011;5404;42.656;23.336;2023-06-04T04:16:46;9.38;;;5.30;;
10705;SDS011;5404;42.656;23.336;2023-06-04T04:19:12;12.25;;;4.80;;
10705;SDS011;5404;42.656;23.336;2023-06-04T04:21:37;10.98;;;4.93;;
10705;SDS011;5404;42.656;23.336;2023-06-04T04:24:03;6.85;;;4.57;;
10705;SDS011;5404;42.656;23.336;2023-06-04T04:26:29;7.40;;;4.63;;
10705;SDS011;5404;42.656;23.336;2023-06-04T04:28:55;6.35;;;4.80;;
10705;SDS011;5404;42.656;23.336;2023-06-04T04:31:25;12.18;;;4.80;;
10705;SDS011;5404;42.656;23.336;2023-06-04T04:33:55;6.53;;;4.15;;
10705;SDS011;5404;42.656;23.336;2023-06-04T04:36:21;6.22;;;4.82;;
10705;SDS011;5404;42.656;23.336;2023-06-04T04:38:47;5.72;;;4.45;;
10705;SDS011;5404;42.656;23.336;2023-06-04T04:41:19;8.98;;;5.68;;
10705;SDS011;5404;42.656;23.336;2023-06-04T04:43:46;8.52;;;5.57;;
10705;SDS011;5404;42.656;23.336;2023-06-04T04:46:11;8.60;;;5.20;;
10705;SDS011;5404;42.656;23.336;2023-06-04T04:48:37;13.60;;;5.25;;
10705;SDS011;5404;42.656;23.336;2023-06-04T04:51:03;10.80;;;4.68;;
10705;SDS011;5404;42.656;23.336;2023-06-04T04:53:29;13.10;;;5.28;;
10705;SDS011;5404;42.656;23.336;2023-06-04T04:55:54;9.93;;;5.68;;
10705;SDS011;5404;42.656;23.336;2023-06-04T04:58:20;20.63;;;5.40;;
10705;SDS011;5404;42.656;23.336;2023-06-04T05:00:45;11.25;;;5.43;;
10705;SDS011;5404;42.656;23.336;2023-06-04T05:03:12;6.93;;;5.05;;
10705;SDS011;5404;42.656;23.336;2023-06-04T05:05:38;11.10;;;5.13;;
10705;SDS011;5404;42.656;23.336;2023-06-04T05:08:03;7.10;;;5.43;;
10705;SDS011;5404;42.656;23.336;2023-06-04T05:10:29;7.07;;;4.97;;
10705;SDS011;5404;42.656;23.336;2023-06-04T05:12:58;9.23;;;4.93;;
10705;SDS011;5404;42.656;23.336;2023-06-04T05:15:25;5.88;;;4.50;;
10705;SDS011;5404;42.656;23.336;2023-06-04T05:17:51;9.65;;;4.75;;
10705;SDS011;5404;42.656;23.336;2023-06-04T05:20:18;7.10;;;5.20;;
10705;SDS011;5404;42.656;23.336;2023-06-04T05:22:46;17.83;;;5.78;;
10705;SDS011;5404;42.656;23.336;2023-06-04T05:25:12;15.70;;;5.10;;
10705;SDS011;5404;42.656;23.336;2023-06-04T05:27:37;9.88;;;4.78;;
10705;SDS011;5404;42.656;23.336;2023-06-04T05:30:05;11.65;;;5.45;;
10705;SDS011;5404;42.656;23.336;2023-06-04T05:32:31;8.65;;;5.03;;
10705;SDS011;5404;42.656;23.336;2023-06-04T05:34:57;10.40;;;5.47;;
10705;SDS011;5404;42.656;23.336;2023-06-04T05:37:24;19.63;;;5.63;;
10705;SDS011;5404;42.656;23.336;2023-06-04T05:39:52;11.65;;;6.18;;
10705;SDS011;5404;42.656;23.336;2023-06-04T05:42:18;12.63;;;5.70;;
10705;SDS011;5404;42.656;23.336;2023-06-04T05:44:43;11.15;;;5.20;;
10705;SDS011;5404;42.656;23.336;2023-06-04T05:47:09;8.68;;;5.68;;
10705;SDS011;5404;42.656;23.336;2023-06-04T05:49:34;8.75;;;6.38;;
10705;SDS011;5404;42.656;23.336;2023-06-04T05:52:00;11.38;;;5.85;;
10705;SDS011;5404;42.656;23.336;2023-06-04T05:54:26;17.50;;;6.40;;
10705;SDS011;5404;42.656;23.336;2023-06-04T05:56:51;14.70;;;5.60;;
10705;SDS011;5404;42.656;23.336;2023-06-04T05:59:17;12.43;;;6.18;;
10705;SDS011;5404;42.656;23.336;2023-06-04T06:01:42;12.15;;;6.55;;
10705;SDS011;5404;42.656;23.336;2023-06-04T06:04:08;11.10;;;6.40;;
10705;SDS011;5404;42.656;23.336;2023-06-04T06:06:34;15.73;;;6.43;;
10705;SDS011;5404;42.656;23.336;2023-06-04T06:09:00;16.90;;;7.40;;
10705;SDS011;5404;42.656;23.336;2023-06-04T06:11:26;12.02;;;6.70;;
10705;SDS011;5404;42.656;23.336;2023-06-04T06:13:52;11.88;;;7.05;;
10705;SDS011;5404;42.656;23.336;2023-06-04T06:16:17;13.88;;;7.07;;
10705;SDS011;5404;42.656;23.336;2023-06-04T06:18:43;13.65;;;8.15;;
10705;SDS011;5404;42.656;23.336;2023-06-04T06:21:09;15.18;;;7.60;;
10705;SDS011;5404;42.656;23.336;2023-06-04T06:23:34;16.10;;;7.45;;
10705;SDS011;5404;42.656;23.336;2023-06-04T06:26:00;12.43;;;7.50;;
10705;SDS011;5404;42.656;23.336;2023-06-04T06:28:27;9.05;;;5.78;;
10705;SDS011;5404;42.656;23.336;2023-06-04T06:30:52;12.82;;;6.03;;
10705;SDS011;5404;42.656;23.336;2023-06-04T06:33:18;10.55;;;6.40;;
10705;SDS011;5404;42.656;23.336;2023-06-04T06:35:46;14.90;;;6.70;;
10705;SDS011;5404;42.656;23.336;2023-06-04T06:38:13;12.52;;;6.28;;
10705;SDS011;5404;42.656;23.336;2023-06-04T06:40:39;8.80;;;5.63;;
10705;SDS011;5404;42.656;23.336;2023-06-04T06:43:05;13.23;;;5.28;;
10705;SDS011;5404;42.656;23.336;2023-06-04T06:45:31;11.75;;;5.07;;
10705;SDS011;5404;42.656;23.336;2023-06-04T06:47:56;8.27;;;5.55;;
10705;SDS011;5404;42.656;23.336;2023-06-04T06:50:22;9.07;;;5.10;;
10705;SDS011;5404;42.656;23.336;2023-06-04T06:52:47;12.45;;;5.80;;
10705;SDS011;5404;42.656;23.336;2023-06-04T06:55:13;12.18;;;5.85;;
10705;SDS011;5404;42.656;23.336;2023-06-04T06:57:38;8.48;;;5.40;;
10705;SDS011;5404;42.656;23.336;2023-06-04T07:00:04;11.57;;;5.55;;
10705;SDS011;5404;42.656;23.336;2023-06-04T07:02:31;9.30;;;5.63;;
10705;SDS011;5404;42.656;23.336;2023-06-04T07:04:56;11.25;;;5.38;;
10705;SDS011;5404;42.656;23.336;2023-06-04T07:07:22;9.60;;;5.53;;
10705;SDS011;5404;42.656;23.336;2023-06-04T07:09:47;11.85;;;5.28;;
10705;SDS011;5404;42.656;23.336;2023-06-04T07:12:13;11.50;;;5.45;;
10705;SDS011;5404;42.656;23.336;2023-06-04T07:14:38;8.25;;;4.97;;
10705;SDS011;5404;42.656;23.336;2023-06-04T07:17:04;10.18;;;5.65;;
10705;SDS011;5404;42.656;23.336;2023-06-04T07:19:29;12.52;;;5.30;;
10705;SDS011;5404;42.656;23.336;2023-06-04T07:21:55;12.02;;;5.18;;
10705;SDS011;5404;42.656;23.336;2023-06-04T07:24:21;10.38;;;5.72;;
10705;SDS011;5404;42.656;23.336;2023-06-04T07:26:47;8.63;;;5.75;;
10705;SDS011;5404;42.656;23.336;2023-06-04T07:29:12;11.68;;;5.65;;
10705;SDS011;5404;42.656;23.336;2023-06-04T07:31:38;13.32;;;6.20;;
10705;SDS011;5404;42.656;23.336;2023-06-04T07:34:03;14.00;;;6.38;;
10705;SDS011;5404;42.656;23.336;2023-06-04T07:36:29;14.68;;;6.85;;
10705;SDS011;5404;42.656;23.336;2023-06-04T07:38:56;10.57;;;6.78;;
10705;SDS011;5404;42.656;23.336;2023-06-04T07:41:21;14.32;;;7.78;;
10705;SDS011;5404;42.656;23.336;2023-06-04T07:43:47;12.38;;;6.82;;
10705;SDS011;5404;42.656;23.336;2023-06-04T07:46:13;11.70;;;7.03;;
10705;SDS011;5404;42.656;23.336;2023-06-04T07:48:38;11.75;;;6.75;;
10705;SDS011;5404;42.656;23.336;2023-06-04T07:51:04;14.98;;;7.43;;
10705;SDS011;5404;42.656;23.336;2023-06-04T07:53:29;15.15;;;6.60;;
10705;SDS011;5404;42.656;23.336;2023-06-04T07:55:56;12.38;;;6.53;;
10705;SDS011;5404;42.656;23.336;2023-06-04T07:58:22;13.82;;;7.25;;
10705;SDS011;5404;42.656;23.336;2023-06-04T08:00:47;10.43;;;6.70;;
10705;SDS011;5404;42.656;23.336;2023-06-04T08:03:13;10.32;;;6.35;;
10705;SDS011;5404;42.656;23.336;2023-06-04T08:05:40;15.57;;;6.50;;
10705;SDS011;5404;42.656;23.336;2023-06-04T08:08:05;12.77;;;7.03;;
10705;SDS011;5404;42.656;23.336;2023-06-04T08:10:31;16.08;;;8.02;;
10705;SDS011;5404;42.656;23.336;2023-06-04T08:12:57;9.23;;;6.97;;
10705;SDS011;5404;42.656;23.336;2023-06-04T08:15:22;20.88;;;8.27;;
10705;SDS011;5404;42.656;23.336;2023-06-04T08:17:48;16.48;;;8.50;;
10705;SDS011;5404;42.656;23.336;2023-06-04T08:20:14;15.15;;;8.30;;
10705;SDS011;5404;42.656;23.336;2023-06-04T08:22:39;23.90;;;8.55;;
10705;SDS011;5404;42.656;23.336;2023-06-04T08:25:06;17.98;;;8.60;;
10705;SDS011;5404;42.656;23.336;2023-06-04T08:27:32;16.65;;;9.48;;
10705;SDS011;5404;42.656;23.336;2023-06-04T08:29:57;24.80;;;9.48;;
10705;SDS011;5404;42.656;23.336;2023-06-04T08:32:23;16.40;;;8.73;;
10705;SDS011;5404;42.656;23.336;2023-06-04T08:34:49;18.90;;;9.35;;
10705;SDS011;5404;42.656;23.336;2023-06-04T08:37:16;13.00;;;8.38;;
10705;SDS011;5404;42.656;23.336;2023-06-04T08:39:42;22.20;;;9.60;;
10705;SDS011;5404;42.656;23.336;2023-06-04T08:42:08;19.17;;;9.15;;
10705;SDS011;5404;42.656;23.336;2023-06-04T08:44:40;16.75;;;9.35;;
10705;SDS011;5404;42.656;23.336;2023-06-04T08:47:08;18.17;;;8.60;;
10705;SDS011;5404;42.656;23.336;2023-06-04T08:49:37;16.70;;;7.93;;
10705;SDS011;5404;42.656;23.336;2023-06-04T08:52:05;14.70;;;9.25;;
10705;SDS011;5404;42.656;23.336;2023-06-04T08:54:32;14.35;;;7.75;;
10705;SDS011;5404;42.656;23.336;2023-06-04T08:56:58;15.20;;;7.65;;
10705;SDS011;5404;42.656;23.336;2023-06-04T08:59:25;18.55;;;9.15;;
10705;SDS011;5404;42.656;23.336;2023-06-04T09:01:55;18.55;;;9.55;;
10705;SDS011;5404;42.656;23.336;2023-06-04T09:04:22;13.70;;;8.57;;
10705;SDS011;5404;42.656;23.336;2023-06-04T09:06:48;15.82;;;8.10;;
10705;SDS011;5404;42.656;23.336;2023-06-04T09:09:14;12.30;;;8.10;;
10705;SDS011;5404;42.656;23.336;2023-06-04T09:11:50;16.50;;;8.70;;
10705;SDS011;5404;42.656;23.336;2023-06-04T09:14:17;12.38;;;7.47;;
10705;SDS011;5404;42.656;23.336;2023-06-04T09:16:47;12.35;;;7.57;;
10705;SDS011;5404;42.656;23.336;2023-06-04T09:19:16;13.15;;;7.93;;
10705;SDS011;5404;42.656;23.336;2023-06-04T09:21:54;13.25;;;7.47;;
10705;SDS011;5404;42.656;23.336;2023-06-04T09:24:21;17.10;;;8.00;;
10705;SDS011;5404;42.656;23.336;2023-06-04T09:26:48;13.88;;;8.07;;
10705;SDS011;5404;42.656;23.336;2023-06-04T09:29:15;16.88;;;8.77;;
10705;SDS011;5404;42.656;23.336;2023-06-04T09:31:41;16.25;;;8.05;;
10705;SDS011;5404;42.656;23.336;2023-06-04T09:34:09;17.25;;;8.35;;
10705;SDS011;5404;42.656;23.336;2023-06-04T09:36:35;15.75;;;8.13;;
10705;SDS011;5404;42.656;23.336;2023-06-04T09:39:23;16.83;;;8.20;;
10705;SDS011;5404;42.656;23.336;2023-06-04T09:41:57;15.00;;;8.80;;
10705;SDS011;5404;42.656;23.336;2023-06-04T09:44:24;21.58;;;9.98;;
10705;SDS011;5404;42.656;23.336;2023-06-04T09:46:57;20.50;;;8.82;;
10705;SDS011;5404;42.656;23.336;2023-06-04T09:49:22;24.25;;;10.07;;
10705;SDS011;5404;42.656;23.336;2023-06-04T09:51:48;19.88;;;8.50;;
10705;SDS011;5404;42.656;23.336;2023-06-04T09:54:15;10.48;;;7.28;;
10705;SDS011;5404;42.656;23.336;2023-06-04T09:56:41;17.92;;;10.07;;
10705;SDS011;5404;42.656;23.336;2023-06-04T09:59:08;22.92;;;9.55;;
10705;SDS011;5404;42.656;23.336;2023-06-04T10:01:36;23.43;;;9.27;;
10705;SDS011;5404;42.656;23.336;2023-06-04T10:04:04;16.67;;;10.30;;
10705;SDS011;5404;42.656;23.336;2023-06-04T10:06:33;16.02;;;9.23;;
10705;SDS011;5404;42.656;23.336;2023-06-04T10:09:04;18.05;;;8.95;;
10705;SDS011;5404;42.656;23.336;2023-06-04T10:11:35;31.67;;;9.43;;
10705;SDS011;5404;42.656;23.336;2023-06-04T10:14:27;14.57;;;7.82;;
10705;SDS011;5404;42.656;23.336;2023-06-04T10:16:57;11.35;;;7.07;;
10705;SDS011;5404;42.656;23.336;2023-06-04T10:19:23;10.65;;;6.63;;
10705;SDS011;5404;42.656;23.336;2023-06-04T10:21:49;16.60;;;7.57;;
10705;SDS011;5404;42.656;23.336;2023-06-04T10:24:17;12.57;;;6.28;;
10705;SDS011;5404;42.656;23.336;2023-06-04T10:26:45;13.00;;;7.20;;
10705;SDS011;5404;42.656;23.336;2023-06-04T10:29:10;10.73;;;6.32;;
10705;SDS011;5404;42.656;23.336;2023-06-04T10:31:37;16.80;;;7.55;;
10705;SDS011;5404;42.656;23.336;2023-06-04T10:34:03;12.02;;;7.10;;
10705;SDS011;5404;42.656;23.336;2023-06-04T10:36:29;16.50;;;7.00;;
10705;SDS011;5404;42.656;23.336;2023-06-04T10:38:55;13.82;;;7.32;;
10705;SDS011;5404;42.656;23.336;2023-06-04T10:41:21;17.70;;;6.80;;
10705;SDS011;5404;42.656;23.336;2023-06-04T10:43:48;9.75;;;5.75;;
10705;SDS011;5404;42.656;23.336;2023-06-04T10:46:15;13.25;;;7.80;;
10705;SDS011;5404;42.656;23.336;2023-06-04T10:48:54;12.25;;;6.25;;
10705;SDS011;5404;42.656;23.336;2023-06-04T10:51:29;13.32;;;7.63;;
10705;SDS011;5404;42.656;23.336;2023-06-04T10:53:59;9.98;;;7.25;;
10705;SDS011;5404;42.656;23.336;2023-06-04T10:58:52;9.05;;;6.90;;
10705;SDS011;5404;42.656;23.336;2023-06-04T11:03:51;10.60;;;6.68;;
10705;SDS011;5404;42.656;23.336;2023-06-04T11:06:16;11.48;;;6.72;;
10705;SDS011;5404;42.656;23.336;2023-06-04T11:08:42;13.48;;;6.82;;
10705;SDS011;5404;42.656;23.336;2023-06-04T11:11:11;12.93;;;6.93;;
10705;SDS011;5404;42.656;23.336;2023-06-04T11:13:41;11.10;;;7.03;;
10705;SDS011;5404;42.656;23.336;2023-06-04T11:16:16;22.65;;;7.32;;
10705;SDS011;5404;42.656;23.336;2023-06-04T11:18:43;28.88;;;8.30;;
10705;SDS011;5404;42.656;23.336;2023-06-04T11:21:09;10.68;;;6.75;;
10705;SDS011;5404;42.656;23.336;2023-06-04T11:23:39;11.80;;;7.50;;
10705;SDS011;5404;42.656;23.336;2023-06-04T11:26:05;9.35;;;7.05;;
10705;SDS011;5404;42.656;23.336;2023-06-04T11:28:31;12.23;;;7.43;;
10705;SDS011;5404;42.656;23.336;2023-06-04T11:33:23;14.52;;;7.95;;
10705;SDS011;5404;42.656;23.336;2023-06-04T11:35:48;12.63;;;7.38;;
10705;SDS011;5404;42.656;23.336;2023-06-04T11:38:13;15.13;;;7.20;;
10705;SDS011;5404;42.656;23.336;2023-06-04T11:40:39;11.18;;;7.90;;
10705;SDS011;5404;42.656;23.336;2023-06-04T11:43:05;17.30;;;7.78;;
10705;SDS011;5404;42.656;23.336;2023-06-04T11:45:30;17.08;;;7.75;;
10705;SDS011;5404;42.656;23.336;2023-06-04T11:47:57;10.10;;;7.80;;
10705;SDS011;5404;42.656;23.336;2023-06-04T11:50:23;12.70;;;8.07;;
10705;SDS011;5404;42.656;23.336;2023-06-04T11:52:52;18.25;;;8.35;;
10705;SDS011;5404;42.656;23.336;2023-06-04T11:55:18;18.10;;;7.47;;
10705;SDS011;5404;42.656;23.336;2023-06-04T11:57:47;11.20;;;8.00;;
10705;SDS011;5404;42.656;23.336;2023-06-04T12:00:14;16.55;;;8.95;;
10705;SDS011;5404;42.656;23.336;2023-06-04T12:02:50;10.23;;;7.93;;
10705;SDS011;5404;42.656;23.336;2023-06-04T12:07:47;17.67;;;8.90;;
10705;SDS011;5404;42.656;23.336;2023-06-04T12:10:15;13.87;;;9.70;;
10705;SDS011;5404;42.656;23.336;2023-06-04T12:12:44;13.40;;;8.68;;
10705;SDS011;5404;42.656;23.336;2023-06-04T12:15:10;18.45;;;8.80;;
10705;SDS011;5404;42.656;23.336;2023-06-04T12:17:36;12.18;;;8.85;;
10705;SDS011;5404;42.656;23.336;2023-06-04T12:20:04;10.95;;;7.95;;
10705;SDS011;5404;42.656;23.336;2023-06-04T12:22:31;11.77;;;8.35;;
10705;SDS011;5404;42.656;23.336;2023-06-04T12:24:57;11.20;;;8.45;;
10705;SDS011;5404;42.656;23.336;2023-06-04T12:27:27;14.90;;;8.65;;
10705;SDS011;5404;42.656;23.336;2023-06-04T12:32:25;15.35;;;8.20;;
10705;SDS011;5404;42.656;23.336;2023-06-04T12:34:51;14.50;;;9.48;;
10705;SDS011;5404;42.656;23.336;2023-06-04T12:37:17;14.68;;;8.23;;
10705;SDS011;5404;42.656;23.336;2023-06-04T12:39:43;11.38;;;8.80;;
10705;SDS011;5404;42.656;23.336;2023-06-04T12:42:08;15.02;;;8.88;;
10705;SDS011;5404;42.656;23.336;2023-06-04T12:44:40;15.63;;;8.57;;
10705;SDS011;5404;42.656;23.336;2023-06-04T12:47:06;17.35;;;8.88;;
10705;SDS011;5404;42.656;23.336;2023-06-04T12:49:33;14.95;;;8.73;;
10705;SDS011;5404;42.656;23.336;2023-06-04T12:51:58;17.73;;;9.23;;
10705;SDS011;5404;42.656;23.336;2023-06-04T12:54:24;24.05;;;9.23;;
10705;SDS011;5404;42.656;23.336;2023-06-04T12:56:50;18.52;;;9.68;;
10705;SDS011;5404;42.656;23.336;2023-06-04T12:59:16;15.40;;;9.45;;
10705;SDS011;5404;42.656;23.336;2023-06-04T13:01:42;16.13;;;8.77;;
10705;SDS011;5404;42.656;23.336;2023-06-04T13:04:07;14.25;;;10.20;;
10705;SDS011;5404;42.656;23.336;2023-06-04T13:06:34;15.07;;;9.88;;
10705;SDS011;5404;42.656;23.336;2023-06-04T13:09:01;17.02;;;9.93;;
10705;SDS011;5404;42.656;23.336;2023-06-04T13:11:28;14.32;;;8.35;;
10705;SDS011;5404;42.656;23.336;2023-06-04T13:13:53;14.88;;;9.52;;
10705;SDS011;5404;42.656;23.336;2023-06-04T13:16:19;20.80;;;9.52;;
10705;SDS011;5404;42.656;23.336;2023-06-04T13:18:44;12.15;;;7.45;;
10705;SDS011;5404;42.656;23.336;2023-06-04T13:21:10;12.93;;;7.00;;
10705;SDS011;5404;42.656;23.336;2023-06-04T13:23:35;14.50;;;7.43;;
10705;SDS011;5404;42.656;23.336;2023-06-04T13:26:01;14.05;;;6.82;;
10705;SDS011;5404;42.656;23.336;2023-06-04T13:28:26;12.88;;;7.93;;
10705;SDS011;5404;42.656;23.336;2023-06-04T13:30:52;11.35;;;7.25;;
10705;SDS011;5404;42.656;23.336;2023-06-04T13:33:17;16.05;;;7.30;;
10705;SDS011;5404;42.656;23.336;2023-06-04T13:35:44;14.77;;;6.93;;
10705;SDS011;5404;42.656;23.336;2023-06-04T13:38:10;12.48;;;7.25;;
10705;SDS011;5404;42.656;23.336;2023-06-04T13:40:37;14.20;;;7.13;;
10705;SDS011;5404;42.656;23.336;2023-06-04T13:43:04;13.00;;;7.20;;
10705;SDS011;5404;42.656;23.336;2023-06-04T13:45:30;13.38;;;7.60;;
10705;SDS011;5404;42.656;23.336;2023-06-04T13:47:56;13.10;;;7.43;;
10705;SDS011;5404;42.656;23.336;2023-06-04T13:50:24;15.10;;;7.10;;
10705;SDS011;5404;42.656;23.336;2023-06-04T13:52:49;14.55;;;7.57;;
10705;SDS011;5404;42.656;23.336;2023-06-04T13:55:16;10.23;;;7.43;;
10705;SDS011;5404;42.656;23.336;2023-06-04T13:57:41;11.18;;;7.30;;
10705;SDS011;5404;42.656;23.336;2023-06-04T14:00:07;15.27;;;7.75;;
10705;SDS011;5404;42.656;23.336;2023-06-04T14:02:33;13.98;;;8.57;;
10705;SDS011;5404;42.656;23.336;2023-06-04T14:04:58;12.10;;;7.97;;
10705;SDS011;5404;42.656;23.336;2023-06-04T14:07:24;16.90;;;7.97;;
10705;SDS011;5404;42.656;23.336;2023-06-04T14:09:49;14.90;;;7.57;;
10705;SDS011;5404;42.656;23.336;2023-06-04T14:12:19;15.75;;;7.45;;
10705;SDS011;5404;42.656;23.336;2023-06-04T14:14:45;17.95;;;7.70;;
10705;SDS011;5404;42.656;23.336;2023-06-04T14:17:11;9.80;;;7.10;;
10705;SDS011;5404;42.656;23.336;2023-06-04T14:19:38;11.93;;;7.57;;
10705;SDS011;5404;42.656;23.336;2023-06-04T14:22:04;12.18;;;8.25;;
10705;SDS011;5404;42.656;23.336;2023-06-04T14:24:29;17.73;;;8.15;;
10705;SDS011;5404;42.656;23.336;2023-06-04T14:26:55;14.98;;;8.52;;
10705;SDS011;5404;42.656;23.336;2023-06-04T14:29:21;15.07;;;9.02;;
10705;SDS011;5404;42.656;23.336;2023-06-04T14:31:47;24.77;;;8.50;;
10705;SDS011;5404;42.656;23.336;2023-06-04T14:34:12;12.88;;;7.82;;
10705;SDS011;5404;42.656;23.336;2023-06-04T14:36:38;13.73;;;8.25;;
10705;SDS011;5404;42.656;23.336;2023-06-04T14:39:03;14.90;;;8.68;;
10705;SDS011;5404;42.656;23.336;2023-06-04T14:41:29;16.45;;;7.75;;
10705;SDS011;5404;42.656;23.336;2023-06-04T14:43:55;15.82;;;8.40;;
10705;SDS011;5404;42.656;23.336;2023-06-04T14:46:20;16.13;;;8.35;;
10705;SDS011;5404;42.656;23.336;2023-06-04T14:48:46;20.90;;;9.35;;
10705;SDS011;5404;42.656;23.336;2023-06-04T14:51:12;12.63;;;8.32;;
10705;SDS011;5404;42.656;23.336;2023-06-04T14:53:37;16.70;;;9.25;;
10705;SDS011;5404;42.656;23.336;2023-06-04T14:58:31;14.05;;;9.75;;
10705;SDS011;5404;42.656;23.336;2023-06-04T15:00:58;16.88;;;9.23;;
10705;SDS011;5404;42.656;23.336;2023-06-04T15:03:24;15.00;;;7.80;;